Time;durP1;ratioP1;P1;durP2;ratioP2;P2;SDS_P1;SDS_P2;PMS_P1;PMS_P2;Temp;Humidity;BMP_temperature;BMP_pressure;BME280_temperature;BME280_humidity;BME280_pressure;Samples;Min_cycle;Max_cycle;Signal;HPM_P1;HPM_P2
2021/06/07 00:02:18;;;;;;;7.72;6.28;;;;;;;11.44;66.93;97515.14;1844394;77;27302;-81
2021/06/07 00:04:45;;;;;;;9.90;6.40;;;;;;;11.42;67.01;97518.05;1844405;77;25721;-83
2021/06/07 00:07:13;;;;;;;7.92;6.58;;;;;;;11.39;67.11;97524.40;1844375;77;25751;-86
2021/06/07 00:09:41;;;;;;;12.07;6.15;;;;;;;11.36;67.22;97524.30;1844593;77;25786;-82
2021/06/07 00:12:13;;;;;;;8.28;6.28;;;;;;;11.34;67.29;97517.47;1844459;77;25814;-86
2021/06/07 00:14:40;;;;;;;8.20;6.53;;;;;;;11.32;67.26;97523.09;1844740;77;27346;-88
2021/06/07 00:17:07;;;;;;;7.20;6.47;;;;;;;11.30;67.47;97522.98;1844268;77;25898;-85
2021/06/07 00:19:38;;;;;;;9.10;6.62;;;;;;;11.22;67.49;97526.76;1844293;77;25801;-85
2021/06/07 00:22:05;;;;;;;9.58;6.42;;;;;;;11.19;67.61;97520.42;1813708;77;26402;-85
2021/06/07 00:24:33;;;;;;;8.08;6.78;;;;;;;11.16;67.65;97527.08;1759325;80;25642;-84
2021/06/07 00:26:59;;;;;;;11.43;6.55;;;;;;;11.09;67.66;97526.27;1760640;80;27394;-85
2021/06/07 00:29:26;;;;;;;5.90;5.35;;;;;;;11.07;67.82;97524.30;1758216;81;25713;-85
2021/06/07 00:31:53;;;;;;;6.90;6.20;;;;;;;11.04;67.86;97520.66;1760673;80;25776;-84
2021/06/07 00:34:22;;;;;;;7.55;5.92;;;;;;;11.03;67.85;97524.40;1760594;80;26280;-84
2021/06/07 00:36:48;;;;;;;8.58;6.30;;;;;;;11.00;67.91;97522.63;1760831;80;25626;-84
2021/06/07 00:39:16;;;;;;;9.95;5.95;;;;;;;10.95;67.91;97521.10;1758959;81;27189;-85
2021/06/07 00:41:47;;;;;;;9.65;5.80;;;;;;;10.91;68.03;97524.73;1749031;81;25715;-83
2021/06/07 00:44:18;;;;;;;8.25;5.80;;;;;;;10.91;68.10;97520.69;1760873;80;25762;-84
2021/06/07 00:46:45;;;;;;;6.55;5.95;;;;;;;10.90;68.09;97521.72;1751479;80;25847;-84
2021/06/07 00:49:12;;;;;;;9.80;6.62;;;;;;;10.90;68.19;97514.14;1759410;80;25777;-85
2021/06/07 00:51:40;;;;;;;8.38;6.15;;;;;;;10.81;68.32;97517.59;1761953;80;27539;-85
2021/06/07 00:54:09;;;;;;;9.58;6.12;;;;;;;10.76;68.43;97516.03;1761692;80;25718;-86
2021/06/07 00:56:36;;;;;;;9.98;6.90;;;;;;;10.76;68.54;97516.03;1760591;80;26505;-84
2021/06/07 00:59:03;;;;;;;10.78;6.90;;;;;;;10.71;68.59;97517.19;1761038;81;25895;-85
2021/06/07 01:01:30;;;;;;;10.35;7.20;;;;;;;10.71;68.72;97518.55;1754335;81;25765;-86
2021/06/07 01:03:59;;;;;;;8.48;6.60;;;;;;;10.73;68.66;97517.30;1759849;80;27355;-85
2021/06/07 01:06:27;;;;;;;7.03;6.05;;;;;;;10.71;68.68;97514.49;1770262;80;25802;-84
2021/06/07 01:08:54;;;;;;;9.85;7.03;;;;;;;10.70;68.66;97514.18;1759571;81;25793;-88
2021/06/07 01:11:22;;;;;;;6.45;5.85;;;;;;;10.69;68.67;97516.56;1756641;80;25692;-85
2021/06/07 01:13:50;;;;;;;8.68;6.58;;;;;;;10.66;68.76;97507.02;1739403;81;25663;-85
2021/06/07 01:16:19;;;;;;;9.70;6.20;;;;;;;10.65;68.81;97511.27;1754187;80;27338;-85
2021/06/07 01:18:47;;;;;;;8.55;6.50;;;;;;;10.63;68.86;97510.13;1752503;80;25265;-85
2021/06/07 01:21:19;;;;;;;8.78;6.20;;;;;;;10.60;68.89;97513.27;1759908;80;25750;-85
2021/06/07 01:23:47;;;;;;;11.30;6.67;;;;;;;10.59;68.96;97520.22;1766733;79;25838;-85
2021/06/07 01:26:18;;;;;;;11.95;6.95;;;;;;;10.54;69.13;97515.95;1770647;79;25790;-85
2021/06/07 01:28:46;;;;;;;9.38;6.80;;;;;;;10.52;69.32;97512.62;1771339;80;27359;-84
2021/06/07 01:31:13;;;;;;;11.25;7.45;;;;;;;10.50;69.32;97507.45;1778168;79;25800;-85
2021/06/07 01:33:45;;;;;;;10.38;7.80;;;;;;;10.48;69.34;97506.83;1710402;82;25783;-84
2021/06/07 01:36:12;;;;;;;8.10;6.70;;;;;;;10.45;69.43;97504.02;1784687;79;25764;-86
2021/06/07 01:38:40;;;;;;;7.87;6.37;;;;;;;10.43;69.50;97514.19;1771380;80;25777;-85
2021/06/07 01:41:11;;;;;;;10.00;6.87;;;;;;;10.38;69.50;97512.66;1766329;79;27354;-84
2021/06/07 01:43:39;;;;;;;10.45;6.95;;;;;;;10.36;69.55;97514.72;1771261;80;26457;-87
2021/06/07 01:46:06;;;;;;;9.35;7.22;;;;;;;10.37;69.59;97514.20;1771247;79;25891;-83
2021/06/07 01:48:33;;;;;;;6.90;6.20;;;;;;;10.38;69.66;97511.82;1771095;80;26493;-87
2021/06/07 01:51:03;;;;;;;7.37;6.62;;;;;;;10.38;69.59;97509.95;1770556;80;25762;-86
2021/06/07 01:53:30;;;;;;;8.15;6.55;;;;;;;10.33;69.55;97509.73;1771538;80;27354;-86
2021/06/07 01:56:01;;;;;;;7.50;6.17;;;;;;;10.30;69.61;97504.74;1787937;79;25811;-86
2021/06/07 01:58:29;;;;;;;10.53;6.62;;;;;;;10.30;69.61;97507.44;1795071;79;25771;-84
2021/06/07 02:01:04;;;;;;;11.05;6.53;;;;;;;10.27;69.58;97505.66;1778378;79;25671;-83
2021/06/07 02:03:31;;;;;;;7.72;6.28;;;;;;;10.23;69.61;97510.66;1715048;82;25725;-83
2021/06/07 02:06:01;;;;;;;12.20;6.90;;;;;;;10.21;69.75;97513.25;1770715;80;28250;-86
2021/06/07 02:08:32;;;;;;;9.00;7.00;;;;;;;10.14;69.81;97511.88;1770718;80;25732;-85
2021/06/07 02:11:11;;;;;;;8.48;6.65;;;;;;;10.06;69.91;97509.36;1769768;80;25698;-84
2021/06/07 02:13:38;;;;;;;9.03;7.05;;;;;;;10.06;70.15;97510.70;1756656;80;26382;-83
2021/06/07 02:16:11;;;;;;;8.95;6.92;;;;;;;10.06;70.18;97509.36;1762270;80;25804;-87
2021/06/07 02:18:38;;;;;;;;;;;;;;;10.03;70.28;97511.11;1754308;80;27426;-88
2021/06/07 02:21:10;;;;;;;7.83;6.47;;;;;;;9.96;70.46;97507.58;1771005;80;25671;-83
2021/06/07 02:23:38;;;;;;;11.55;6.55;;;;;;;9.96;70.37;97508.93;1774429;79;25831;-85
2021/06/07 02:26:07;;;;;;;8.85;6.80;;;;;;;9.96;70.38;97511.11;1750582;80;26000;-83
2021/06/07 02:28:35;;;;;;;7.95;6.33;;;;;;;9.96;70.37;97508.93;1713830;82;25763;-85
2021/06/07 02:31:02;;;;;;;7.58;6.78;;;;;;;9.95;70.32;97512.14;1702673;82;27426;-83
2021/06/07 02:33:29;;;;;;;7.85;7.05;;;;;;;9.93;70.33;97506.13;1785565;79;25850;-83
2021/06/07 02:35:56;;;;;;;10.72;6.65;;;;;;;9.91;70.30;97507.36;1775401;78;25714;-83
2021/06/07 02:38:23;;;;;;;8.13;6.53;;;;;;;9.90;70.37;97501.67;1779312;79;25724;-85
2021/06/07 02:40:51;;;;;;;6.95;6.25;;;;;;;9.88;70.40;97503.74;1766493;80;25765;-83
2021/06/07 02:43:18;;;;;;;7.80;6.62;;;;;;;9.83;70.37;97499.47;1780381;79;27370;-83
2021/06/07 02:45:45;;;;;;;8.63;6.67;;;;;;;9.83;70.43;97503.51;1710825;82;25792;-85
2021/06/07 02:48:12;;;;;;;7.35;6.50;;;;;;;9.83;70.42;97502.16;1795283;79;25742;-85
2021/06/07 02:50:43;;;;;;;7.55;6.72;;;;;;;9.82;70.51;97493.76;1769859;79;25699;-85
2021/06/07 02:53:11;;;;;;;9.40;6.80;;;;;;;9.80;70.50;97498.52;1766800;80;25729;-86
2021/06/07 02:55:45;;;;;;;9.03;6.45;;;;;;;9.73;70.50;97503.39;1754903;79;27532;-83
2021/06/07 02:58:12;;;;;;;8.58;6.95;;;;;;;9.72;70.56;97503.08;1766412;80;25860;-82
2021/06/07 03:00:55;;;;;;;7.55;6.17;;;;;;;9.72;70.75;97506.28;1766340;80;25844;-86
2021/06/07 03:03:23;;;;;;;8.68;6.05;;;;;;;9.71;70.72;97496.02;1750348;79;26305;-83
2021/06/07 03:05:52;;;;;;;10.98;6.95;;;;;;;9.70;70.71;97501.09;1757542;79;25770;-87
2021/06/07 03:08:22;;;;;;;8.15;6.40;;;;;;;9.68;70.74;97503.16;1772513;79;28282;-84
2021/06/07 03:10:54;;;;;;;10.78;6.87;;;;;;;9.68;70.80;97506.38;1768201;79;25924;-85
2021/06/07 03:13:21;;;;;;;9.53;6.90;;;;;;;9.68;70.90;97510.41;1766704;80;25730;-85
2021/06/07 03:15:49;;;;;;;8.18;7.37;;;;;;;9.70;70.95;97502.45;1761089;79;25822;-86
2021/06/07 03:18:16;;;;;;;7.28;6.58;;;;;;;9.69;71.10;97511.56;1736533;79;25257;-82
2021/06/07 03:20:43;;;;;;;10.05;7.45;;;;;;;9.72;71.23;97509.81;1739299;79;28246;-82
2021/06/07 03:23:15;;;;;;;9.80;7.62;;;;;;;9.79;71.26;97506.29;1766525;80;26414;-86
2021/06/07 03:25:44;;;;;;;10.53;7.20;;;;;;;9.82;71.27;97505.89;1765159;80;25236;-86
2021/06/07 03:28:13;;;;;;;9.15;7.70;;;;;;;9.82;71.25;97505.89;1766701;80;25701;-87
2021/06/07 03:30:41;;;;;;;14.18;7.78;;;;;;;9.83;71.30;97512.43;1766281;80;25758;-86
2021/06/07 03:33:10;;;;;;;10.48;8.35;;;;;;;9.84;71.36;97513.27;1766615;79;27568;-84
2021/06/07 03:35:40;;;;;;;10.25;7.78;;;;;;;9.86;71.43;97507.16;1745334;79;25780;-83
2021/06/07 03:38:07;;;;;;;11.57;7.40;;;;;;;9.88;71.53;97513.17;1752335;80;25866;-86
2021/06/07 03:40:38;;;;;;;7.85;6.75;;;;;;;9.89;71.52;97510.80;1748473;79;25762;-86
2021/06/07 03:43:06;;;;;;;12.88;7.58;;;;;;;9.91;71.45;97507.36;1763552;80;25691;-83
2021/06/07 03:45:34;;;;;;;12.00;7.22;;;;;;;9.90;71.49;97505.17;1766721;80;27413;-83
2021/06/07 03:48:02;;;;;;;11.08;7.83;;;;;;;9.91;71.60;97510.05;1770213;79;25860;-86
2021/06/07 03:50:30;;;;;;;12.60;8.28;;;;;;;9.93;71.66;97505.28;1783177;79;26498;-83
2021/06/07 03:52:56;;;;;;;17.35;9.75;;;;;;;9.97;71.73;97505.20;1766569;80;26474;-83
2021/06/07 03:55:26;;;;;;;11.50;8.48;;;;;;;10.02;71.84;97500.03;1766968;80;25770;-83
2021/06/07 03:57:54;;;;;;;14.03;8.53;;;;;;;10.03;71.85;97503.02;1766723;81;27359;-83
2021/06/07 04:00:25;;;;;;;12.58;9.10;;;;;;;10.07;71.91;97504.28;1766519;80;25670;-85
2021/06/07 04:02:52;;;;;;;10.80;8.80;;;;;;;10.10;71.99;97507.92;1748883;79;25666;-85
2021/06/07 04:05:19;;;;;;;10.80;8.88;;;;;;;10.14;72.06;97499.73;1739941;79;25776;-83
2021/06/07 04:07:46;;;;;;;10.53;8.63;;;;;;;10.19;72.11;97505.36;1781171;79;25767;-85
2021/06/07 04:10:18;;;;;;;10.82;8.05;;;;;;;10.23;72.16;97502.58;1737385;79;27508;-87
2021/06/07 04:12:47;;;;;;;9.98;8.43;;;;;;;10.30;72.22;97506.61;1766753;80;25816;-86
2021/06/07 04:15:18;;;;;;;12.60;8.55;;;;;;;10.33;72.26;97512.43;1745221;79;25824;-85
2021/06/07 04:17:46;;;;;;;9.58;8.53;;;;;;;10.39;72.27;97514.80;1766675;80;25879;-83
2021/06/07 04:20:16;;;;;;;11.10;8.90;;;;;;;10.45;72.38;97514.81;1768106;80;25804;-84
2021/06/07 04:22:44;;;;;;;13.60;9.05;;;;;;;10.51;72.36;97510.44;1766685;81;28027;-84
2021/06/07 04:25:15;;;;;;;13.95;9.10;;;;;;;10.59;72.41;97518.34;1774287;79;25907;-83
2021/06/07 04:27:44;;;;;;;12.90;8.98;;;;;;;10.66;72.43;97508.87;1776450;79;26241;-82
2021/06/07 04:30:15;;;;;;;11.80;9.33;;;;;;;10.74;72.39;97516.78;1777984;79;25762;-87
2021/06/07 04:32:43;;;;;;;11.60;8.58;;;;;;;10.82;72.42;97513.85;1785286;78;25972;-83
2021/06/07 04:35:13;;;;;;;12.33;8.85;;;;;;;10.91;72.34;97509.05;1790302;79;27397;-85
2021/06/07 04:37:50;;;;;;;10.68;8.13;;;;;;;10.98;72.28;97509.37;1783357;78;25730;-85
2021/06/07 04:40:12;;;;;;;9.90;7.80;;;;;;;11.07;72.22;97514.02;1790194;79;25728;-86
2021/06/07 04:42:39;;;;;;;9.58;7.87;;;;;;;11.13;72.27;97507.23;1798228;78;26182;-83
2021/06/07 04:45:08;;;;;;;9.28;8.10;;;;;;;11.18;72.37;97506.08;1791372;78;25912;-86
2021/06/07 04:47:35;;;;;;;9.75;8.70;;;;;;;11.25;72.42;97509.27;1805050;79;27436;-83
2021/06/07 04:50:06;;;;;;;13.80;8.35;;;;;;;11.31;72.46;97503.86;1789659;78;25690;-83
2021/06/07 04:52:34;;;;;;;12.00;8.43;;;;;;;11.39;72.47;97512.23;1739825;82;25697;-84
2021/06/07 04:55:01;;;;;;;13.35;8.35;;;;;;;11.44;72.68;97511.09;1711759;83;25842;-85
2021/06/07 04:57:29;;;;;;;13.00;8.70;;;;;;;11.52;72.72;97510.83;1711761;82;25765;-83
2021/06/07 04:59:55;;;;;;;13.13;8.85;;;;;;;11.61;72.77;97515.47;1777617;78;27488;-86
2021/06/07 05:02:22;;;;;;;14.93;9.75;;;;;;;11.68;72.75;97518.47;1779990;79;25797;-87
2021/06/07 05:04:48;;;;;;;12.53;8.23;;;;;;;11.77;72.65;97519.06;1742868;80;25640;-85
2021/06/07 05:07:15;;;;;;;12.28;9.30;;;;;;;11.84;72.73;97523.38;1777268;79;25710;-84
2021/06/07 05:09:42;;;;;;;15.32;9.30;;;;;;;11.91;72.81;97515.25;1777153;79;25794;-83
2021/06/07 05:12:09;;;;;;;17.15;9.85;;;;;;;12.00;72.78;97513.94;1783983;78;27293;-85
2021/06/07 05:14:36;;;;;;;9.98;8.53;;;;;;;12.09;72.80;97522.09;1791593;79;25745;-84
2021/06/07 05:17:03;;;;;;;9.13;7.90;;;;;;;12.18;72.84;97511.86;1773905;79;25718;-83
2021/06/07 05:19:30;;;;;;;10.72;8.05;;;;;;;12.25;72.81;97512.11;1759548;80;26272;-83
2021/06/07 05:21:56;;;;;;;10.32;8.85;;;;;;;12.31;72.67;97514.47;1776806;79;25747;-85
2021/06/07 05:24:23;;;;;;;11.60;7.97;;;;;;;12.39;72.71;97519.61;1774691;79;27390;-83
2021/06/07 05:26:49;;;;;;;10.53;7.67;;;;;;;12.48;72.81;97518.28;1766545;80;25859;-84
2021/06/07 05:29:16;;;;;;;11.78;8.18;;;;;;;12.59;72.86;97515.38;1766447;80;25680;-85
2021/06/07 05:31:43;;;;;;;11.70;7.92;;;;;;;12.68;72.88;97524.08;1782987;79;25776;-87
2021/06/07 05:34:10;;;;;;;9.50;8.48;;;;;;;12.77;72.80;97526.80;1757759;79;26255;-86
2021/06/07 05:36:36;;;;;;;10.58;8.98;;;;;;;12.85;72.78;97521.08;1758704;80;27360;-87
2021/06/07 05:39:04;;;;;;;10.53;8.58;;;;;;;12.93;72.69;97520.79;1755538;79;25755;-87
2021/06/07 05:41:30;;;;;;;9.98;7.70;;;;;;;13.03;72.62;97517.06;1746734;80;25794;-87
2021/06/07 05:43:57;;;;;;;9.03;7.50;;;;;;;13.11;72.36;97515.93;1746641;79;26473;-88
2021/06/07 05:46:23;;;;;;;10.32;7.47;;;;;;;13.20;72.29;97512.72;1763214;79;25718;-88
2021/06/07 05:48:50;;;;;;;9.50;7.92;;;;;;;13.30;72.19;97515.73;1754381;80;27541;-87
2021/06/07 05:51:16;;;;;;;14.10;8.28;;;;;;;13.41;72.05;97507.89;1761405;80;25695;-87
2021/06/07 05:53:43;;;;;;;9.70;7.62;;;;;;;13.52;71.91;97512.59;1751676;79;25706;-87
2021/06/07 05:56:10;;;;;;;9.95;7.58;;;;;;;13.64;71.84;97521.06;1759761;80;25860;-86
2021/06/07 05:58:37;;;;;;;8.48;7.60;;;;;;;13.79;71.62;97517.95;1785001;79;25766;-86
2021/06/07 06:01:03;;;;;;;9.38;7.67;;;;;;;13.91;71.46;97516.65;1766670;80;27405;-86
2021/06/07 06:03:30;;;;;;;11.85;8.13;;;;;;;14.01;71.35;97512.32;1761076;81;25770;-85
2021/06/07 06:05:56;;;;;;;9.98;7.25;;;;;;;14.12;71.21;97513.45;1766694;80;26653;-84
2021/06/07 06:08:23;;;;;;;14.13;8.05;;;;;;;14.23;71.06;97514.02;1746937;79;25895;-87
2021/06/07 06:10:50;;;;;;;10.00;7.50;;;;;;;14.34;70.81;97511.02;1785298;79;25928;-85
2021/06/07 06:13:16;;;;;;;13.88;7.40;;;;;;;14.43;70.67;97513.72;1766451;80;27526;-86
2021/06/07 06:15:43;;;;;;;10.53;7.58;;;;;;;14.49;70.53;97504.62;1757757;79;25651;-86
2021/06/07 06:18:09;;;;;;;12.33;7.90;;;;;;;14.65;70.42;97518.89;1735918;79;25736;-86
2021/06/07 06:20:36;;;;;;;9.83;7.50;;;;;;;14.76;70.33;97518.61;1753251;79;25691;-86
2021/06/07 06:23:03;;;;;;;10.00;7.30;;;;;;;14.87;70.13;97520.50;1783880;79;25687;-86
2021/06/07 06:25:30;;;;;;;9.35;7.10;;;;;;;15.00;69.86;97520.80;1753507;79;28322;-85
2021/06/07 06:28:00;;;;;;;10.08;7.65;;;;;;;15.12;69.81;97521.09;1767270;80;26539;-85
2021/06/07 06:30:29;;;;;;;8.00;7.10;;;;;;;15.24;69.48;97517.00;1748578;80;25663;-88
2021/06/07 06:32:59;;;;;;;9.43;7.55;;;;;;;15.35;69.35;97514.80;1759956;81;25679;-88
2021/06/07 06:35:26;;;;;;;9.93;7.55;;;;;;;15.44;69.04;97518.83;1757748;80;25655;-85
2021/06/07 06:37:53;;;;;;;11.12;7.55;;;;;;;15.55;68.76;97518.54;1766601;80;27659;-86
2021/06/07 06:40:30;;;;;;;9.58;7.55;;;;;;;15.65;68.83;97515.20;1791131;79;25265;-86
2021/06/07 06:42:59;;;;;;;13.20;7.37;;;;;;;15.75;68.96;97514.86;1767391;79;25698;-85
2021/06/07 06:45:27;;;;;;;9.13;7.10;;;;;;;15.89;69.10;97515.95;1766760;80;26342;-85
2021/06/07 06:47:58;;;;;;;10.05;7.47;;;;;;;16.01;68.89;97516.20;1766680;80;26418;-86
2021/06/07 06:50:32;;;;;;;11.25;7.58;;;;;;;16.10;68.76;97512.00;1766801;80;27458;-85
2021/06/07 06:53:01;;;;;;;9.60;7.78;;;;;;;16.27;68.66;97518.86;1766138;80;26067;-84
2021/06/07 06:55:27;;;;;;;9.23;7.08;;;;;;;16.40;68.58;97518.55;1746444;80;25838;-85
2021/06/07 06:57:54;;;;;;;8.93;7.53;;;;;;;16.50;68.45;97525.54;1753398;80;26681;-86
2021/06/07 07:00:21;;;;;;;11.70;7.00;;;;;;;16.63;68.53;97521.70;1735263;80;25252;-85
2021/06/07 07:02:49;;;;;;;10.53;7.17;;;;;;;16.76;68.63;97522.74;1753082;80;27583;-85
2021/06/07 07:05:15;;;;;;;8.40;7.08;;;;;;;16.90;68.09;97527.33;1759355;79;25782;-85
2021/06/07 07:07:42;;;;;;;14.13;6.75;;;;;;;17.03;67.98;97517.95;1788129;79;25241;-84
2021/06/07 07:10:10;;;;;;;13.13;7.15;;;;;;;17.16;67.70;97518.97;1762422;79;25890;-90
2021/06/07 07:12:37;;;;;;;11.43;6.87;;;;;;;17.26;67.48;97520.51;1766893;80;25690;-84
2021/06/07 07:15:05;;;;;;;8.13;6.83;;;;;;;17.37;66.92;97519.57;1762184;80;27923;-86
2021/06/07 07:17:32;;;;;;;12.73;6.90;;;;;;;17.51;66.68;97514.58;1746043;81;25751;-84
2021/06/07 07:19:59;;;;;;;8.43;6.17;;;;;;;17.63;66.27;97516.11;1757323;80;25691;-84
2021/06/07 07:22:26;;;;;;;10.00;6.83;;;;;;;17.78;65.92;97513.29;1776268;79;25791;-88
2021/06/07 07:24:52;;;;;;;9.13;6.60;;;;;;;17.90;65.60;97518.08;1770277;79;25673;-86
2021/06/07 07:27:20;;;;;;;11.78;6.42;;;;;;;18.02;65.22;97522.86;1777161;78;27249;-93
2021/06/07 07:29:48;;;;;;;9.38;6.28;;;;;;;18.17;64.99;97520.84;1793554;79;25741;-85
2021/06/07 07:32:16;;;;;;;11.10;6.47;;;;;;;18.29;64.65;97519.61;1798927;78;25704;-83
2021/06/07 07:34:43;;;;;;;7.30;5.92;;;;;;;18.47;65.04;97523.08;1765403;80;26653;-84
2021/06/07 07:37:10;;;;;;;9.45;6.50;;;;;;;18.60;64.47;97518.55;1759317;79;25771;-83
2021/06/07 07:39:38;;;;;;;13.78;6.62;;;;;;;18.72;64.56;97523.31;1756307;80;27533;-85
2021/06/07 07:42:06;;;;;;;8.83;6.53;;;;;;;18.81;64.36;97514.94;1777518;79;26510;-83
2021/06/07 07:44:33;;;;;;;8.73;6.47;;;;;;;18.90;64.09;97520.19;1750085;80;25677;-83
2021/06/07 07:47:01;;;;;;;7.83;5.92;;;;;;;19.05;63.99;97519.48;1777808;79;25800;-82
2021/06/07 07:49:28;;;;;;;9.45;5.55;;;;;;;19.21;63.69;97512.19;1755285;79;25720;-83
2021/06/07 07:51:54;;;;;;;8.03;6.65;;;;;;;19.37;63.72;97512.57;1777825;79;27524;-85
2021/06/07 07:54:21;;;;;;;8.73;5.95;;;;;;;19.41;63.30;97495.91;1795159;78;25843;-87
2021/06/07 07:56:48;;;;;;;9.73;5.62;;;;;;;19.61;62.93;97506.98;1780244;79;25744;-84
2021/06/07 07:59:14;;;;;;;9.85;5.28;;;;;;;19.96;62.58;97508.22;1775921;80;26565;-83
2021/06/07 08:01:42;;;;;;;41.48;6.62;;;;;;;20.35;62.06;97516.31;1777813;79;25714;-82
2021/06/07 08:04:09;;;;;;;15.10;5.70;;;;;;;20.55;61.12;97517.43;1764472;79;27633;-83
2021/06/07 08:06:36;;;;;;;7.55;5.25;;;;;;;20.61;60.92;97516.35;1747935;78;25836;-82
2021/06/07 08:09:04;;;;;;;12.95;5.17;;;;;;;20.61;60.45;97514.44;1807498;78;25676;-83
2021/06/07 08:11:30;;;;;;;13.70;5.53;;;;;;;20.72;59.95;97507.86;1776888;79;25754;-82
2021/06/07 08:13:57;;;;;;;7.87;4.67;;;;;;;21.01;60.17;97510.85;1775899;79;26315;-85
2021/06/07 08:16:23;;;;;;;8.05;4.20;;;;;;;21.45;59.98;97508.91;1777973;80;28173;-82
2021/06/07 08:18:50;;;;;;;9.38;4.30;;;;;;;21.77;58.80;97507.98;1799015;78;25826;-83
2021/06/07 08:21:16;;;;;;;6.30;4.55;;;;;;;21.71;58.26;97504.99;1763557;79;25286;-83
2021/06/07 08:23:43;;;;;;;4.55;4.15;;;;;;;21.61;57.80;97509.15;1760390;79;26363;-85
2021/06/07 08:26:10;;;;;;;5.05;4.08;;;;;;;21.49;57.36;97518.25;1769600;80;25912;-83
2021/06/07 08:28:36;;;;;;;6.15;4.47;;;;;;;21.26;57.01;97515.52;1756481;79;28045;-83
2021/06/07 08:31:03;;;;;;;6.30;4.53;;;;;;;21.01;57.00;97513.59;1773028;79;25765;-83
2021/06/07 08:33:31;;;;;;;6.50;4.70;;;;;;;20.85;56.97;97522.95;1760042;79;25744;-83
2021/06/07 08:35:58;;;;;;;6.75;4.80;;;;;;;20.63;56.93;97518.28;1748753;79;25783;-83
2021/06/07 08:38:25;;;;;;;5.62;4.65;;;;;;;20.43;57.21;97514.95;1760677;80;26460;-83
2021/06/07 08:40:54;;;;;;;9.65;5.33;;;;;;;20.32;57.57;97518.19;1759137;79;27318;-82
2021/06/07 08:43:23;;;;;;;6.37;4.50;;;;;;;20.23;57.63;97518.45;1763980;80;25785;-83
2021/06/07 08:45:50;;;;;;;6.70;4.83;;;;;;;20.14;57.85;97516.79;1787169;79;25992;-85
2021/06/07 08:48:18;;;;;;;6.40;4.60;;;;;;;20.08;58.46;97513.73;1764079;79;25755;-86
2021/06/07 08:50:44;;;;;;;7.47;5.03;;;;;;;20.05;58.85;97512.91;1764448;80;25699;-85
2021/06/07 08:53:13;;;;;;;8.48;5.00;;;;;;;20.07;58.82;97504.41;1736835;79;27463;-87
2021/06/07 08:55:40;;;;;;;8.33;4.55;;;;;;;20.61;59.47;97510.88;1763966;80;25711;-87
2021/06/07 08:58:08;;;;;;;6.85;4.62;;;;;;;21.28;58.51;97507.02;1764509;79;25747;-86
2021/06/07 09:00:39;;;;;;;5.83;4.37;;;;;;;21.55;57.14;97511.63;1766016;80;25755;-89
2021/06/07 09:03:10;;;;;;;8.28;3.90;;;;;;;21.95;56.61;97505.72;1747534;79;25820;-84
2021/06/07 09:05:41;;;;;;;6.78;4.30;;;;;;;22.12;55.78;97510.32;1753093;80;27366;-84
2021/06/07 09:08:17;;;;;;;4.70;4.05;;;;;;;22.92;55.75;97501.30;1765195;80;25738;-84
2021/06/07 09:10:51;;;;;;;8.13;3.80;;;;;;;22.92;55.75;97501.30;1754704;79;25244;-84
2021/06/07 09:13:22;;;;;;;6.50;4.15;;;;;;;23.64;55.21;97499.50;1754204;79;26487;-83
2021/06/07 09:15:52;;;;;;;5.08;4.05;;;;;;;24.30;54.25;97498.68;1762965;79;25739;-84
2021/06/07 09:18:38;;;;;;;6.45;3.75;;;;;;;24.84;52.81;97496.77;1764612;80;27458;-83
2021/06/07 09:21:15;;;;;;;7.30;3.90;;;;;;;25.40;52.07;97502.72;1764050;81;25683;-84
2021/06/07 09:23:48;;;;;;;5.25;3.80;;;;;;;25.62;50.97;97495.14;1775377;79;25795;-83
2021/06/07 09:26:28;;;;;;;4.95;3.45;;;;;;;25.45;50.04;97497.93;1782669;78;25776;-84
2021/06/07 09:28:58;;;;;;;8.95;3.33;;;;;;;25.07;48.66;97504.69;1715337;82;25763;-85
2021/06/07 09:31:38;;;;;;;4.35;3.95;;;;;;;24.41;48.45;97502.92;1755153;80;27493;-84
2021/06/07 09:34:07;;;;;;;6.35;3.80;;;;;;;24.21;48.07;97496.30;1772162;79;25770;-84
2021/06/07 09:36:37;;;;;;;6.10;3.87;;;;;;;24.08;48.79;97501.16;1776790;79;25688;-84
2021/06/07 09:39:14;;;;;;;4.10;3.08;;;;;;;24.41;48.47;97498.79;1775534;79;25745;-84
2021/06/07 09:42:01;;;;;;;6.45;4.05;;;;;;;24.49;47.22;97495.38;1760720;79;25793;-86
2021/06/07 09:44:49;;;;;;;6.87;3.20;;;;;;;24.11;46.46;97486.79;1777523;79;27372;-89
2021/06/07 09:47:30;;;;;;;6.42;3.75;;;;;;;23.84;46.43;97489.61;1751205;79;25801;-84
2021/06/07 09:50:04;;;;;;;4.45;3.90;;;;;;;23.99;46.37;97481.15;1776368;79;25718;-84
2021/06/07 09:52:44;;;;;;;8.30;3.33;;;;;;;24.26;46.10;97481.10;1776724;79;26345;-84
2021/06/07 09:55:18;;;;;;;9.23;3.70;;;;;;;24.69;46.09;97479.88;1777517;78;25252;-85
2021/06/07 09:57:52;;;;;;;3.67;3.37;;;;;;;25.18;45.63;97478.53;1777268;79;27394;-85
2021/06/07 10:00:41;;;;;;;8.75;3.90;;;;;;;25.34;44.31;97478.52;1777199;79;25662;-84
2021/06/07 10:03:31;;;;;;;5.72;3.27;;;;;;;25.54;45.06;97474.54;1755936;79;25686;-85
2021/06/07 10:06:05;;;;;;;4.47;3.22;;;;;;;25.56;43.68;97477.00;1760817;79;26724;-83
2021/06/07 10:08:56;;;;;;;6.37;3.58;;;;;;;25.14;43.89;97480.25;1760818;79;25812;-84
2021/06/07 10:11:32;;;;;;;11.93;3.83;;;;;;;24.84;44.50;97482.95;1776986;79;27372;-83
2021/06/07 10:14:08;;;;;;;4.00;3.60;;;;;;;24.65;44.30;97477.45;1777331;79;25726;-85
2021/06/07 10:16:37;;;;;;;6.70;4.15;;;;;;;24.55;44.29;97487.27;1777151;79;25690;-85
2021/06/07 10:19:07;;;;;;;7.50;3.22;;;;;;;24.34;43.71;97492.84;1784868;78;25810;-84
2021/06/07 10:21:34;;;;;;;7.53;3.40;;;;;;;24.12;43.22;97485.13;1722765;82;25695;-86
2021/06/07 10:24:00;;;;;;;6.70;3.55;;;;;;;24.06;44.05;97478.84;1710304;81;28801;-83
2021/06/07 10:26:27;;;;;;;4.87;3.70;;;;;;;24.51;44.46;97484.88;1709936;81;26389;-86
2021/06/07 10:28:56;;;;;;;6.95;3.58;;;;;;;24.99;44.42;97480.54;1713653;81;25896;-84
2021/06/07 10:31:26;;;;;;;5.30;3.67;;;;;;;25.30;43.71;97477.48;1752252;80;26699;-83
2021/06/07 10:34:08;;;;;;;10.03;4.10;;;;;;;25.62;43.09;97468.32;1728520;80;25793;-83
2021/06/07 10:36:45;;;;;;;;;;;;;;;25.91;42.28;97469.39;1714566;82;27545;-84
2021/06/07 10:39:22;;;;;;;6.87;3.45;;;;;;;26.22;40.14;97467.34;1772249;79;25937;-87
2021/06/07 10:42:00;;;;;;;3.50;2.80;;;;;;;26.56;40.81;97458.02;1777422;79;26231;-84
2021/06/07 10:44:41;;;;;;;4.50;3.58;;;;;;;26.89;40.60;97464.94;1763596;79;26562;-89
2021/06/07 10:47:24;;;;;;;6.10;3.52;;;;;;;27.15;40.10;97465.14;1776663;79;26338;-83
2021/06/07 10:50:08;;;;;;;8.05;3.58;;;;;;;27.14;39.05;97466.84;1777645;79;27371;-87
2021/06/07 10:52:50;;;;;;;7.67;3.80;;;;;;;27.22;39.77;97470.22;1799154;78;25750;-82
2021/06/07 10:55:17;;;;;;;7.45;3.30;;;;;;;27.35;39.20;97467.94;1755219;78;25707;-84
2021/06/07 10:57:58;;;;;;;4.87;3.25;;;;;;;27.44;38.82;97466.02;1777332;79;25827;-83
2021/06/07 11:00:38;;;;;;;13.83;5.03;;;;;;;27.71;38.40;97466.98;1778109;79;25236;-87
2021/06/07 11:03:26;;;;;;;4.58;2.98;;;;;;;27.83;37.96;97458.86;1777758;79;27531;-83
2021/06/07 11:05:56;;;;;;;5.10;3.55;;;;;;;28.01;37.49;97463.34;1777700;79;25840;-82
2021/06/07 11:08:33;;;;;;;3.95;2.87;;;;;;;27.91;37.35;97463.61;1800319;78;25704;-83
2021/06/07 11:11:21;;;;;;;7.17;2.77;;;;;;;27.96;37.06;97457.92;1807390;79;25698;-84
2021/06/07 11:13:55;;;;;;;3.95;2.83;;;;;;;28.12;35.70;97463.28;1716607;82;25888;-84
2021/06/07 11:16:28;;;;;;;4.25;3.80;;;;;;;28.05;36.07;97454.59;1730504;81;27358;-81
2021/06/07 11:19:02;;;;;;;3.77;2.70;;;;;;;28.18;36.62;97457.02;1769368;79;25747;-83
2021/06/07 11:21:43;;;;;;;3.98;2.80;;;;;;;28.46;35.43;97454.77;1780635;79;25696;-85
2021/06/07 11:24:34;;;;;;;4.85;3.05;;;;;;;28.35;35.00;97457.63;1723052;80;25736;-85
2021/06/07 11:27:04;;;;;;;4.55;2.65;;;;;;;28.14;34.15;97447.66;1710289;81;26421;-81
2021/06/07 11:29:33;;;;;;;3.22;2.77;;;;;;;28.27;33.90;97441.19;1738496;80;27397;-88
2021/06/07 11:32:10;;;;;;;4.72;2.90;;;;;;;28.25;33.09;97439.33;1722686;80;26003;-86
2021/06/07 11:34:52;;;;;;;5.15;2.60;;;;;;;28.38;32.65;97442.50;1729495;81;25824;-82
2021/06/07 11:37:35;;;;;;;6.50;3.00;;;;;;;28.55;31.98;97439.73;1740200;81;25835;-82
2021/06/07 11:40:06;;;;;;;3.40;2.60;;;;;;;28.54;31.58;97440.06;1740236;81;25709;-83
2021/06/07 11:42:33;;;;;;;7.15;3.12;;;;;;;28.55;31.39;97441.13;1737928;81;27051;-81
2021/06/07 11:45:10;;;;;;;5.15;3.05;;;;;;;28.52;31.72;97439.00;1740638;81;25738;-88